createdAt,value
2023-12-02T00:02:10.927Z,13.83
2023-12-02T00:04:46.218Z,13.70
2023-12-02T00:07:20.402Z,15.07
2023-12-02T00:09:54.180Z,13.83
2023-12-02T00:12:28.002Z,13.37
2023-12-02T00:15:01.829Z,11.77
2023-12-02T00:17:35.719Z,12.03
2023-12-02T00:20:13.088Z,12.53
2023-12-02T00:22:46.813Z,13.20
2023-12-02T00:25:20.683Z,12.90
2023-12-02T00:27:54.438Z,11.93
2023-12-02T00:30:28.020Z,12.00
2023-12-02T00:33:01.861Z,12.50
2023-12-02T00:35:37.348Z,12.40
2023-12-02T00:38:11.183Z,13.00
2023-12-02T00:40:44.650Z,14.17
2023-12-02T00:43:18.494Z,14.03
2023-12-02T00:45:52.078Z,13.50
2023-12-02T00:48:26.575Z,13.87
2023-12-02T00:51:02.416Z,14.10
2023-12-02T00:53:36.130Z,14.67
2023-12-02T00:56:11.041Z,14.50
2023-12-02T00:58:44.829Z,13.23
2023-12-02T01:01:18.671Z,13.07
2023-12-02T01:03:52.884Z,11.93
2023-12-02T01:06:28.473Z,11.53
2023-12-02T01:09:02.372Z,11.00
2023-12-02T01:11:36.279Z,11.47
2023-12-02T01:14:12.707Z,14.93
2023-12-02T01:16:46.705Z,14.63
2023-12-02T01:19:20.034Z,14.67
2023-12-02T01:21:56.849Z,14.13
2023-12-02T01:24:30.832Z,13.03
2023-12-02T01:27:05.489Z,14.93
2023-12-02T01:29:39.061Z,13.60
2023-12-02T01:32:12.444Z,13.53
2023-12-02T01:34:46.299Z,13.53
2023-12-02T01:37:21.605Z,13.93
2023-12-02T01:39:55.439Z,11.70
2023-12-02T01:42:30.171Z,12.23
2023-12-02T01:45:04.915Z,13.17
2023-12-02T01:47:38.589Z,14.43
2023-12-02T01:50:13.595Z,14.20
2023-12-02T01:52:48.843Z,14.37
2023-12-02T01:55:22.391Z,13.40
2023-12-02T01:57:57.859Z,14.20
2023-12-02T02:00:31.488Z,14.70
2023-12-02T02:03:05.294Z,13.73
2023-12-02T02:05:39.584Z,13.60
2023-12-02T02:08:14.882Z,13.90
2023-12-02T02:10:48.874Z,13.73
2023-12-02T02:13:22.973Z,13.77
2023-12-02T02:15:57.216Z,13.30
2023-12-02T02:18:34.156Z,13.27
2023-12-02T02:21:08.499Z,14.27
2023-12-02T02:23:45.065Z,13.73
2023-12-02T02:26:18.661Z,15.27
2023-12-02T02:28:52.457Z,15.30
2023-12-02T02:31:26.379Z,14.70
2023-12-02T02:33:59.923Z,14.73
2023-12-02T02:36:33.530Z,14.80
2023-12-02T02:39:09.720Z,14.80
2023-12-02T02:41:46.412Z,14.10
2023-12-02T02:44:20.106Z,15.27
2023-12-02T02:46:54.940Z,15.63
2023-12-02T02:49:28.947Z,14.97
2023-12-02T02:52:02.743Z,15.87
2023-12-02T02:54:38.179Z,14.63
2023-12-02T02:57:12.185Z,14.90
2023-12-02T02:59:45.907Z,15.00
2023-12-02T03:02:19.770Z,13.90
2023-12-02T03:04:53.838Z,15.27
2023-12-02T03:07:27.618Z,13.83
2023-12-02T03:10:03.413Z,13.67
2023-12-02T03:12:37.142Z,13.97
2023-12-02T03:15:12.104Z,13.80
2023-12-02T03:17:45.475Z,14.37
2023-12-02T03:20:19.258Z,18.00
2023-12-02T03:22:54.620Z,16.80
2023-12-02T03:25:30.447Z,15.03
2023-12-02T03:28:04.617Z,14.07
2023-12-02T03:30:38.529Z,15.40
2023-12-02T03:33:12.347Z,15.00
2023-12-02T03:35:45.716Z,14.17
2023-12-02T03:38:19.226Z,15.00
2023-12-02T03:40:54.142Z,14.83
2023-12-02T03:43:27.925Z,15.03
2023-12-02T03:46:01.466Z,14.80
2023-12-02T03:48:35.637Z,15.40
2023-12-02T03:51:10.252Z,15.33
2023-12-02T03:53:44.652Z,17.03
2023-12-02T03:56:20.363Z,16.20
2023-12-02T03:58:56.343Z,15.80
2023-12-02T04:01:30.358Z,14.60
2023-12-02T04:04:03.821Z,13.47
2023-12-02T04:06:37.597Z,13.57
2023-12-02T04:09:12.459Z,13.23
2023-12-02T04:11:49.461Z,14.43
2023-12-02T04:14:23.039Z,15.13
2023-12-02T04:16:57.219Z,15.30
2023-12-02T04:19:30.990Z,13.03
2023-12-02T04:22:07.967Z,14.10
2023-12-02T04:24:42.126Z,14.50
2023-12-02T04:27:17.970Z,12.27
2023-12-02T04:29:51.743Z,14.60
2023-12-02T04:32:25.370Z,15.03
2023-12-02T04:35:00.704Z,14.30
2023-12-02T04:37:34.462Z,12.37
2023-12-02T04:40:12.892Z,13.37
2023-12-02T04:42:48.016Z,13.37
2023-12-02T04:45:22.059Z,12.53
2023-12-02T04:47:55.661Z,14.77
2023-12-02T04:50:29.753Z,14.63
2023-12-02T04:53:03.346Z,14.17
2023-12-02T04:55:37.575Z,12.57
2023-12-02T04:58:13.121Z,12.03
2023-12-02T05:00:46.573Z,10.63
2023-12-02T05:03:22.114Z,12.50
2023-12-02T05:05:55.538Z,12.33
2023-12-02T05:08:29.515Z,14.20
2023-12-02T05:11:03.258Z,12.93
2023-12-02T05:13:40.322Z,11.60
2023-12-02T05:16:14.103Z,11.90
2023-12-02T05:18:48.247Z,11.97
2023-12-02T05:21:23.218Z,11.33
2023-12-02T05:23:57.017Z,11.33
2023-12-02T05:26:30.568Z,12.67
2023-12-02T05:29:07.501Z,12.03
2023-12-02T05:31:41.226Z,12.03
2023-12-02T05:34:15.032Z,11.13
2023-12-02T05:36:49.420Z,11.47
2023-12-02T05:39:23.143Z,10.83
2023-12-02T05:41:58.688Z,10.27
2023-12-02T05:44:33.832Z,10.67
2023-12-02T05:47:07.709Z,10.03
2023-12-02T05:49:45.733Z,9.40
2023-12-02T05:52:19.563Z,8.77
2023-12-02T05:54:54.141Z,8.53
2023-12-02T05:57:30.189Z,9.97
2023-12-02T06:00:07.074Z,8.63
2023-12-02T06:02:43.329Z,9.87
2023-12-02T06:05:18.408Z,9.93
2023-12-02T06:07:54.149Z,9.73
2023-12-02T06:10:41.581Z,9.17
2023-12-02T06:13:15.353Z,9.93
2023-12-02T06:15:50.587Z,8.70
2023-12-02T06:18:24.385Z,8.80
2023-12-02T06:20:58.912Z,8.30
2023-12-02T06:23:32.813Z,9.10
2023-12-02T06:26:08.842Z,9.33
2023-12-02T06:28:42.748Z,8.30
2023-12-02T06:31:18.733Z,9.23
2023-12-02T06:33:52.324Z,9.17
2023-12-02T06:36:25.945Z,9.33
2023-12-02T06:39:00.813Z,8.87
2023-12-02T06:41:34.753Z,9.63
2023-12-02T06:44:08.612Z,10.83
2023-12-02T06:46:43.713Z,10.20
2023-12-02T06:49:17.335Z,10.73
2023-12-02T06:51:51.459Z,9.80
2023-12-02T06:54:25.738Z,10.10
2023-12-02T06:56:59.483Z,9.30
2023-12-02T06:59:33.274Z,9.70
2023-12-02T07:02:09.554Z,10.17
2023-12-02T07:04:43.119Z,9.87
2023-12-02T07:07:17.710Z,9.77
2023-12-02T07:09:52.657Z,9.63
2023-12-02T07:12:26.240Z,10.13
2023-12-02T07:14:59.782Z,9.70
2023-12-02T07:17:34.932Z,9.93
2023-12-02T07:20:10.499Z,9.17
2023-12-02T07:22:44.364Z,8.27
2023-12-02T07:25:18.761Z,9.23
2023-12-02T07:27:53.739Z,8.63
2023-12-02T07:30:29.545Z,7.40
2023-12-02T07:33:05.247Z,8.10
2023-12-02T07:35:39.493Z,8.73
2023-12-02T07:38:13.612Z,8.47
2023-12-02T07:40:48.585Z,8.43
2023-12-02T07:43:22.375Z,8.00
2023-12-02T07:45:55.995Z,7.73
2023-12-02T07:48:31.141Z,7.63
2023-12-02T07:51:06.424Z,9.33
2023-12-02T07:53:41.158Z,8.70
2023-12-02T07:56:14.725Z,8.27
2023-12-02T07:58:48.335Z,8.57
2023-12-02T08:01:22.273Z,8.43
2023-12-02T08:03:58.748Z,7.87
2023-12-02T08:06:33.234Z,8.67
2023-12-02T08:09:07.429Z,9.23
2023-12-02T08:11:41.106Z,9.07
2023-12-02T08:14:14.886Z,9.37
2023-12-02T08:16:49.748Z,9.27
2023-12-02T08:19:25.042Z,10.53
2023-12-02T08:21:59.251Z,9.63
2023-12-02T08:24:37.847Z,9.10
2023-12-02T08:27:12.579Z,9.67
2023-12-02T08:29:46.445Z,9.37
2023-12-02T08:32:20.440Z,8.73
2023-12-02T08:34:59.805Z,9.63
2023-12-02T08:37:33.334Z,9.17
2023-12-02T08:40:09.349Z,10.03
2023-12-02T08:42:43.188Z,9.60
2023-12-02T08:45:17.883Z,8.70
2023-12-02T08:47:51.546Z,9.50
2023-12-02T08:50:26.786Z,10.00
2023-12-02T08:53:00.625Z,9.07
2023-12-02T08:55:34.712Z,11.03
2023-12-02T08:58:08.300Z,10.57
2023-12-02T09:00:41.641Z,10.53
2023-12-02T09:03:14.915Z,9.40
2023-12-02T09:05:50.175Z,10.07
2023-12-02T09:08:24.860Z,10.33
2023-12-02T09:10:58.785Z,9.50
2023-12-02T09:13:47.936Z,9.43
2023-12-02T09:16:23.938Z,10.20
2023-12-02T09:18:58.430Z,9.47
2023-12-02T09:24:43.771Z,10.83
2023-12-02T09:28:13.175Z,9.03
2023-12-02T09:31:07.713Z,9.40
2023-12-02T09:33:44.028Z,10.50
2023-12-02T09:36:34.883Z,10.77
2023-12-02T09:40:27.157Z,10.50
2023-12-02T09:43:24.068Z,9.90
2023-12-02T09:46:26.827Z,9.63
2023-12-02T09:49:27.649Z,9.83
2023-12-02T09:52:34.828Z,9.27
2023-12-02T09:55:35.191Z,10.20
2023-12-02T09:58:26.105Z,10.43
2023-12-02T10:01:16.015Z,10.10
2023-12-02T10:04:12.282Z,9.83
2023-12-02T10:07:05.986Z,9.10
2023-12-02T10:09:50.706Z,10.30
2023-12-02T10:12:41.696Z,10.17
2023-12-02T10:15:18.030Z,10.87
2023-12-02T10:17:57.242Z,9.70
2023-12-02T10:20:36.220Z,10.83
2023-12-02T10:23:25.710Z,10.20
2023-12-02T10:26:08.262Z,10.37
2023-12-02T10:29:00.084Z,11.23
2023-12-02T10:31:38.096Z,10.07
2023-12-02T10:34:23.414Z,11.40
2023-12-02T10:37:01.333Z,9.73
2023-12-02T10:39:43.769Z,10.77
2023-12-02T10:42:23.952Z,10.93
2023-12-02T10:45:07.302Z,10.47
2023-12-02T10:47:41.977Z,10.13
2023-12-02T10:50:18.104Z,10.53
2023-12-02T10:53:02.913Z,9.53
2023-12-02T10:55:39.865Z,9.30
2023-12-02T10:58:16.126Z,11.60
2023-12-02T11:01:00.808Z,10.60
2023-12-02T11:03:46.447Z,10.13
2023-12-02T11:06:31.000Z,9.57
2023-12-02T11:09:13.044Z,8.87
2023-12-02T11:12:01.857Z,11.07
2023-12-02T11:14:45.790Z,9.37
2023-12-02T11:17:38.421Z,9.83
2023-12-02T11:20:23.710Z,10.53
2023-12-02T11:23:24.004Z,10.77
2023-12-02T11:26:19.443Z,10.43
2023-12-02T11:29:18.531Z,9.83
2023-12-02T11:32:24.351Z,10.17
2023-12-02T11:35:16.459Z,10.13
2023-12-02T11:38:01.268Z,11.57
2023-12-02T11:40:53.549Z,10.83
2023-12-02T11:43:45.641Z,11.63
2023-12-02T11:46:26.350Z,11.17
2023-12-02T11:49:23.392Z,11.60
2023-12-02T11:52:14.911Z,9.80
2023-12-02T11:55:09.984Z,9.87
2023-12-02T11:58:01.585Z,9.50
2023-12-02T12:00:52.283Z,10.07
2023-12-02T12:03:49.414Z,10.67
2023-12-02T12:06:44.066Z,9.13
2023-12-02T12:09:31.130Z,10.27
2023-12-02T12:12:09.812Z,9.37
2023-12-02T12:14:46.587Z,10.83
2023-12-02T12:17:20.949Z,9.37
2023-12-02T12:19:55.208Z,9.47
2023-12-02T12:22:30.338Z,10.23
2023-12-02T12:25:05.715Z,9.20
2023-12-02T12:27:39.286Z,9.87
2023-12-02T12:30:13.948Z,9.67
2023-12-02T12:32:48.603Z,12.57
2023-12-02T12:35:22.815Z,12.53
2023-12-02T12:37:58.606Z,13.23
2023-12-02T12:40:33.626Z,13.20
2023-12-02T12:43:10.149Z,13.27
2023-12-02T12:45:44.575Z,13.60
2023-12-02T12:48:25.250Z,13.33
2023-12-02T12:51:04.195Z,12.27
2023-12-02T12:53:47.906Z,15.47
2023-12-02T12:56:35.522Z,17.87
2023-12-02T12:59:13.753Z,16.40
2023-12-02T13:02:13.831Z,17.33
2023-12-02T13:05:00.653Z,16.87
2023-12-02T13:07:42.506Z,15.67
2023-12-02T13:10:19.923Z,14.80
2023-12-02T13:12:59.882Z,14.50
2023-12-02T13:15:40.979Z,14.33
2023-12-02T13:18:15.887Z,15.10
2023-12-02T13:20:51.584Z,15.63
2023-12-02T13:23:28.300Z,15.97
2023-12-02T13:26:08.408Z,16.53
2023-12-02T13:28:43.127Z,16.73
2023-12-02T13:31:19.881Z,15.03
2023-12-02T13:34:15.858Z,14.60
2023-12-02T13:36:55.694Z,15.57
2023-12-02T13:39:34.605Z,15.00
2023-12-02T13:42:14.350Z,16.47
2023-12-02T13:44:57.813Z,14.43
2023-12-02T13:47:51.666Z,13.20
2023-12-02T13:50:31.871Z,14.80
2023-12-02T13:53:21.789Z,14.57
2023-12-02T13:56:15.262Z,13.93
2023-12-02T13:59:12.829Z,13.40
2023-12-02T14:02:02.768Z,12.67
2023-12-02T14:05:05.240Z,13.20
2023-12-02T14:07:48.317Z,13.23
2023-12-02T14:10:25.502Z,12.30
2023-12-02T14:13:40.472Z,12.47
2023-12-02T14:16:36.087Z,13.23
2023-12-02T14:20:04.902Z,12.07
2023-12-02T14:23:09.106Z,11.70
2023-12-02T14:26:02.573Z,12.03
2023-12-02T14:28:56.822Z,12.67
2023-12-02T14:31:56.140Z,13.00
2023-12-02T14:35:17.786Z,11.03
2023-12-02T14:38:20.077Z,12.07
2023-12-02T14:41:18.937Z,13.50
2023-12-02T14:44:09.392Z,11.63
2023-12-02T14:46:57.977Z,12.23
2023-12-02T14:49:37.832Z,11.47
2023-12-02T14:52:12.585Z,12.67
2023-12-02T14:54:47.862Z,12.00
2023-12-02T14:57:23.697Z,12.70
2023-12-02T15:00:02.615Z,11.97
2023-12-02T15:02:41.466Z,10.93
2023-12-02T15:05:17.749Z,13.00
2023-12-02T15:07:54.887Z,12.47
2023-12-02T15:10:37.519Z,11.80
2023-12-02T15:13:20.395Z,12.60
2023-12-02T15:15:56.080Z,11.97
2023-12-02T15:18:33.580Z,14.07
2023-12-02T15:21:09.962Z,13.33
2023-12-02T15:23:45.024Z,13.10
2023-12-02T15:26:21.270Z,13.43
2023-12-02T15:28:57.982Z,12.53
2023-12-02T15:31:34.607Z,12.13
2023-12-02T15:34:09.825Z,12.57
2023-12-02T15:36:43.917Z,13.20
2023-12-02T15:39:18.112Z,13.90
2023-12-02T15:41:53.792Z,13.07
2023-12-02T15:44:27.445Z,18.20
2023-12-02T15:47:03.996Z,14.10
2023-12-02T15:49:39.264Z,13.10
2023-12-02T15:52:13.699Z,14.93
2023-12-02T15:54:47.793Z,13.07
2023-12-02T15:57:22.418Z,13.20
2023-12-02T15:59:57.031Z,13.20
2023-12-02T16:02:31.878Z,13.97
2023-12-02T16:05:09.823Z,13.87
2023-12-02T16:07:45.959Z,13.87
2023-12-02T16:10:19.654Z,14.37
2023-12-02T16:12:53.605Z,13.53
2023-12-02T16:15:29.716Z,13.87
2023-12-02T16:18:05.020Z,14.27
2023-12-02T16:20:41.268Z,12.70
2023-12-02T16:23:16.772Z,14.13
2023-12-02T16:25:50.627Z,13.40
2023-12-02T16:28:24.364Z,13.13
2023-12-02T16:30:58.960Z,13.90
2023-12-02T16:33:33.484Z,12.13
2023-12-02T16:36:10.908Z,13.13
2023-12-02T16:38:44.600Z,11.97
2023-12-02T16:41:18.018Z,13.20
2023-12-02T16:43:51.898Z,12.30
2023-12-02T16:46:25.644Z,12.23
2023-12-02T16:48:59.524Z,12.00
2023-12-02T16:51:36.062Z,11.73
2023-12-02T16:54:09.939Z,14.30
2023-12-02T16:56:44.828Z,13.30
2023-12-02T16:59:49.588Z,12.63
2023-12-02T17:02:35.369Z,11.67
2023-12-02T17:06:00.242Z,12.50
2023-12-02T17:08:36.789Z,13.50
2023-12-02T17:11:12.881Z,13.03
2023-12-02T17:13:56.197Z,13.17
2023-12-02T17:16:56.858Z,12.30
2023-12-02T17:19:31.731Z,11.77
2023-12-02T17:22:10.239Z,11.73
2023-12-02T17:24:46.593Z,13.93
2023-12-02T17:27:42.994Z,16.97
2023-12-02T17:30:17.750Z,13.80
2023-12-02T17:32:51.495Z,13.63
2023-12-02T17:35:25.611Z,14.47
2023-12-02T17:37:59.369Z,14.87
2023-12-02T17:40:34.469Z,13.00
2023-12-02T17:43:08.176Z,13.73
2023-12-02T17:45:42.236Z,15.40
2023-12-02T17:48:16.070Z,13.43
2023-12-02T17:50:49.933Z,14.90
2023-12-02T17:53:24.532Z,15.23
2023-12-02T17:56:00.967Z,16.33
2023-12-02T17:58:34.705Z,16.27
2023-12-02T18:01:10.195Z,14.87
2023-12-02T18:03:43.901Z,15.73
2023-12-02T18:06:19.098Z,15.53
2023-12-02T18:08:53.051Z,15.20
2023-12-02T18:11:28.639Z,16.10
2023-12-02T18:14:02.555Z,17.10
2023-12-02T18:16:36.379Z,16.37
2023-12-02T18:19:10.132Z,14.83
2023-12-02T18:21:46.659Z,15.67
2023-12-02T18:24:20.300Z,15.00
2023-12-02T18:26:55.763Z,17.07
2023-12-02T18:29:31.158Z,19.13
2023-12-02T18:32:06.664Z,19.03
2023-12-02T18:34:41.811Z,17.53
2023-12-02T18:37:15.601Z,16.50
2023-12-02T18:39:49.780Z,16.77
2023-12-02T18:42:25.133Z,15.67
2023-12-02T18:44:58.566Z,17.80
2023-12-02T18:47:32.288Z,16.07
2023-12-02T18:50:07.180Z,17.37
2023-12-02T18:52:40.556Z,16.60
2023-12-02T18:55:14.140Z,20.37
2023-12-02T18:57:49.460Z,19.73
2023-12-02T19:00:23.321Z,20.63
2023-12-02T19:02:57.357Z,21.57
2023-12-02T19:05:32.358Z,20.10
2023-12-02T19:08:06.561Z,21.70
2023-12-02T19:10:42.094Z,18.03
2023-12-02T19:13:18.345Z,17.90
2023-12-02T19:15:52.374Z,21.13
2023-12-02T19:18:26.001Z,19.27
2023-12-02T19:21:01.217Z,17.97
2023-12-02T19:23:35.023Z,18.27
2023-12-02T19:26:09.167Z,17.67
2023-12-02T19:28:44.247Z,17.23
2023-12-02T19:31:17.967Z,18.13
2023-12-02T19:33:51.785Z,17.47
2023-12-02T19:36:26.792Z,17.57
2023-12-02T19:39:00.536Z,18.03
2023-12-02T19:41:35.286Z,18.57
2023-12-02T19:44:11.679Z,19.47
2023-12-02T19:46:46.575Z,19.43
2023-12-02T19:49:20.492Z,18.57
2023-12-02T19:51:54.806Z,17.90
2023-12-02T19:54:28.501Z,19.63
2023-12-02T19:57:04.016Z,20.00
2023-12-02T19:59:39.151Z,18.60
2023-12-02T20:02:13.440Z,18.90
2023-12-02T20:04:47.274Z,21.63
2023-12-02T20:07:21.186Z,19.67
2023-12-02T20:09:55.140Z,19.10
2023-12-02T20:12:28.880Z,19.73
2023-12-02T20:15:04.750Z,19.00
2023-12-02T20:17:39.693Z,19.53
2023-12-02T20:20:14.249Z,18.40
2023-12-02T20:22:49.405Z,20.37
2023-12-02T20:25:23.104Z,20.13
2023-12-02T20:27:56.621Z,19.73
2023-12-02T20:30:31.722Z,19.77
2023-12-02T20:33:05.317Z,20.70
2023-12-02T20:35:39.132Z,19.90
2023-12-02T20:38:14.124Z,19.80
2023-12-02T20:40:48.030Z,20.97
2023-12-02T20:43:21.942Z,20.17
2023-12-02T20:45:57.318Z,19.63
2023-12-02T20:48:30.999Z,21.70
2023-12-02T20:51:05.888Z,20.13
2023-12-02T20:53:39.886Z,20.77
2023-12-02T20:56:13.969Z,19.43
2023-12-02T20:58:47.981Z,19.20
2023-12-02T21:01:23.014Z,18.40
2023-12-02T21:03:57.109Z,20.37
2023-12-02T21:06:30.697Z,20.87
2023-12-02T21:09:04.716Z,20.70
2023-12-02T21:11:38.240Z,22.10
2023-12-02T21:14:13.393Z,20.07
2023-12-02T21:16:48.427Z,20.30
2023-12-02T21:19:22.041Z,20.27
2023-12-02T21:21:55.780Z,19.30
2023-12-02T21:24:29.542Z,20.73
2023-12-02T21:27:03.816Z,19.67
2023-12-02T21:29:38.404Z,20.03
2023-12-02T21:32:23.959Z,21.83
2023-12-02T21:35:10.999Z,18.77
2023-12-02T21:37:45.114Z,19.73
2023-12-02T21:40:22.345Z,22.03
2023-12-02T21:42:55.764Z,19.60
2023-12-02T21:45:44.464Z,20.23
2023-12-02T21:48:41.351Z,20.97
2023-12-02T21:51:24.855Z,20.40
2023-12-02T21:54:02.890Z,19.10
2023-12-02T21:56:43.821Z,20.70
2023-12-02T21:59:19.843Z,19.80
2023-12-02T22:01:56.875Z,19.60
2023-12-02T22:04:42.578Z,19.13
2023-12-02T22:07:24.980Z,18.00
2023-12-02T22:10:04.193Z,17.40
2023-12-02T22:12:39.876Z,20.77
2023-12-02T22:15:23.125Z,18.43
2023-12-02T22:17:57.388Z,20.60
2023-12-02T22:20:32.933Z,18.97
2023-12-02T22:23:13.191Z,20.47
2023-12-02T22:25:46.820Z,19.40
2023-12-02T22:28:21.217Z,21.17
2023-12-02T22:30:54.954Z,20.93
2023-12-02T22:33:31.944Z,20.20
2023-12-02T22:36:11.036Z,20.53
2023-12-02T22:38:47.592Z,22.13
2023-12-02T22:41:21.291Z,21.70
2023-12-02T22:43:59.066Z,20.67
2023-12-02T22:46:33.017Z,18.07
2023-12-02T22:49:08.430Z,18.77
2023-12-02T22:51:44.037Z,19.07
2023-12-02T22:54:28.602Z,21.17
2023-12-02T22:57:03.753Z,19.07
2023-12-02T22:59:37.792Z,20.93
2023-12-02T23:02:13.445Z,19.80
2023-12-02T23:04:47.354Z,18.17
2023-12-02T23:07:57.696Z,19.37
2023-12-02T23:10:39.956Z,20.90
2023-12-02T23:13:51.443Z,20.10
2023-12-02T23:16:40.113Z,18.73
2023-12-02T23:19:32.258Z,19.07
2023-12-02T23:22:09.152Z,17.13
2023-12-02T23:24:44.394Z,21.97
2023-12-02T23:27:44.183Z,21.70
2023-12-02T23:30:23.889Z,18.37
2023-12-02T23:32:58.232Z,17.87
2023-12-02T23:35:31.698Z,19.17
2023-12-02T23:38:08.232Z,17.53
2023-12-02T23:40:48.641Z,19.67
2023-12-02T23:43:37.042Z,17.77
2023-12-02T23:46:11.421Z,18.93
2023-12-02T23:48:45.236Z,19.07
2023-12-02T23:51:19.226Z,19.37
2023-12-02T23:53:54.301Z,19.60
2023-12-02T23:56:30.367Z,18.27
2023-12-02T23:59:04.525Z,18.53
